Time;durP1;ratioP1;P1;durP2;ratioP2;P2;SDS_P1;SDS_P2;PMS_P1;PMS_P2;Temp;Humidity;BMP_temperature;BMP_pressure;BME280_temperature;BME280_humidity;BME280_pressure;Samples;Min_cycle;Max_cycle;Signal;HPM_P1;HPM_P2
2022/01/07 00:00:25;;;;;;;26.80;6.40;;;0.10;99.90;;;-1.67;100.00;101111.78;4972212;28;20027;-75
2022/01/07 00:02:55;;;;;;;25.45;5.95;;;0.10;99.90;;;-1.66;100.00;101118.72;4979041;28;20109;-74
2022/01/07 00:05:22;;;;;;;22.35;6.63;;;0.10;99.90;;;-1.66;100.00;101108.38;4979930;28;20109;-74
2022/01/07 00:07:49;;;;;;;34.90;7.00;;;0.10;99.90;;;-1.67;100.00;101107.50;4972901;28;20034;-74
2022/01/07 00:10:20;;;;;;;27.42;6.97;;;0.10;99.90;;;-1.67;100.00;101104.03;4981970;28;20022;-74
2022/01/07 00:12:47;;;;;;;25.83;7.07;;;0.10;99.90;;;-1.69;100.00;101101.44;4978930;28;20129;-73
2022/01/07 00:15:13;;;;;;;26.42;6.47;;;0.10;99.90;;;-1.67;100.00;101102.31;4977655;28;20026;-74
2022/01/07 00:17:39;;;;;;;29.50;8.18;;;0.10;99.90;;;-1.68;100.00;101099.75;4977798;28;20076;-74
2022/01/07 00:20:09;;;;;;;32.13;7.03;;;0.10;99.90;;;-1.66;100.00;101096.31;4978279;28;20565;-74
2022/01/07 00:22:38;;;;;;;28.15;7.05;;;0.10;99.90;;;-1.64;100.00;101098.94;4977032;28;20030;-74
2022/01/07 00:25:05;;;;;;;35.80;8.05;;;0.10;99.90;;;-1.65;100.00;101097.19;4979792;28;20705;-75
2022/01/07 00:27:32;;;;;;;37.92;8.23;;;0.20;99.90;;;-1.60;100.00;101102.38;4977376;28;20597;-74
2022/01/07 00:29:58;;;;;;;23.63;7.75;;;0.20;99.90;;;-1.59;100.00;101101.56;4978984;28;20541;-74
2022/01/07 00:32:23;;;;;;;28.60;8.23;;;0.20;99.90;;;-1.57;100.00;101097.28;4968540;28;20100;-74
2022/01/07 00:34:49;;;;;;;33.25;7.70;;;0.20;99.90;;;-1.54;100.00;101100.72;4978306;28;20105;-74
2022/01/07 00:37:15;;;;;;;26.92;8.88;;;0.30;99.90;;;-1.52;100.00;101098.16;4980474;28;20570;-74
2022/01/07 00:39:41;;;;;;;40.80;9.00;;;0.30;99.90;;;-1.49;100.00;101096.47;4979443;28;20026;-74
2022/01/07 00:42:08;;;;;;;41.78;9.00;;;0.30;99.90;;;-1.46;100.00;101100.81;4976553;28;20049;-74
2022/01/07 00:44:34;;;;;;;28.58;8.73;;;0.30;99.90;;;-1.46;100.00;101101.66;4980985;28;20031;-74
2022/01/07 00:47:00;;;;;;;29.63;8.70;;;0.30;99.90;;;-1.46;100.00;101088.75;4979561;28;20763;-74
2022/01/07 00:49:26;;;;;;;37.67;8.43;;;0.30;99.90;;;-1.45;100.00;101076.69;4973413;28;20084;-74
2022/01/07 00:51:52;;;;;;;34.88;8.75;;;0.30;99.90;;;-1.48;100.00;101076.69;4977905;28;20034;-74
2022/01/07 00:54:20;;;;;;;25.45;8.30;;;0.30;99.90;;;-1.52;100.00;101069.75;4976934;28;20545;-74
2022/01/07 00:56:46;;;;;;;43.45;9.23;;;0.20;99.90;;;-1.57;100.00;101056.81;4981960;28;20052;-74
2022/01/07 00:59:12;;;;;;;36.10;9.90;;;0.20;99.90;;;-1.60;100.00;101049.00;4979515;28;20023;-74
2022/01/07 01:01:38;;;;;;;32.80;8.43;;;0.20;99.90;;;-1.62;100.00;101050.75;4977079;28;20030;-74
2022/01/07 01:04:04;;;;;;;38.13;8.65;;;0.10;99.90;;;-1.67;100.00;101040.34;4977512;28;20031;-74
2022/01/07 01:06:30;;;;;;;38.17;9.15;;;0.10;99.90;;;-1.69;100.00;101046.38;4979035;28;20422;-75
2022/01/07 01:08:55;;;;;;;44.75;10.02;;;0.10;99.90;;;-1.71;100.00;101037.75;4982202;28;20034;-74
2022/01/07 01:11:22;;;;;;;35.97;8.95;;;0.10;99.90;;;-1.71;100.00;101038.59;4974669;28;20053;-74
2022/01/07 01:13:48;;;;;;;33.30;9.32;;;0.10;99.90;;;-1.75;100.00;101034.28;4978987;28;20039;-74
2022/01/07 01:16:14;;;;;;;41.08;10.10;;;0.10;99.90;;;-1.78;100.00;101031.66;4968947;28;20084;-73
2022/01/07 01:18:39;;;;;;;43.50;9.93;;;0.00;99.90;;;-1.78;100.00;101030.81;4978532;28;20121;-74
2022/01/07 01:21:05;;;;;;;38.55;10.27;;;0.10;99.90;;;-1.78;100.00;101031.66;4985835;28;20033;-74
2022/01/07 01:23:32;;;;;;;47.05;10.27;;;0.00;99.90;;;-1.80;100.00;101029.91;4972551;28;20097;-74
2022/01/07 01:25:58;;;;;;;38.78;10.18;;;0.00;99.90;;;-1.82;100.00;101029.03;4960424;28;20070;-76
2022/01/07 01:28:25;;;;;;;45.25;11.32;;;0.00;99.90;;;-1.82;100.00;101036.78;4976722;28;20553;-74
2022/01/07 01:30:51;;;;;;;48.10;11.07;;;0.00;99.90;;;-1.83;100.00;101027.31;4980622;28;20090;-74
2022/01/07 01:33:18;;;;;;;43.63;10.35;;;0.00;99.90;;;-1.83;100.00;101024.75;4980630;28;20038;-73
2022/01/07 01:35:44;;;;;;;38.58;9.82;;;0.00;99.90;;;-1.84;100.00;101016.09;4971846;28;20030;-74
2022/01/07 01:38:10;;;;;;;36.97;10.35;;;0.00;99.90;;;-1.82;100.00;101022.16;4984905;28;20034;-74
2022/01/07 01:40:36;;;;;;;35.42;9.93;;;0.00;99.90;;;-1.86;100.00;101015.22;4960821;28;20473;-74
2022/01/07 01:43:02;;;;;;;47.25;11.32;;;-0.10;99.90;;;-1.87;100.00;101006.63;4950244;28;20042;-73
2022/01/07 01:45:28;;;;;;;42.55;11.32;;;-0.10;99.90;;;-1.85;100.00;101004.06;4981778;28;20027;-74
2022/01/07 01:47:55;;;;;;;40.78;10.95;;;-0.10;99.90;;;-1.85;100.00;100998.91;4982875;28;20121;-74
2022/01/07 01:50:22;;;;;;;39.25;10.10;;;-0.10;99.90;;;-1.87;100.00;100996.31;4966479;28;20442;-74
2022/01/07 01:52:53;;;;;;;52.35;10.73;;;-0.10;99.90;;;-1.89;100.00;100997.16;4981494;28;20062;-74
2022/01/07 01:55:24;;;;;;;34.05;9.98;;;-0.10;99.90;;;-1.92;100.00;100992.81;4982182;28;20165;-74
2022/01/07 01:57:52;;;;;;;33.85;10.80;;;-0.10;99.90;;;-1.93;100.00;100980.75;4981610;28;20063;-74
2022/01/07 02:00:21;;;;;;;38.08;11.52;;;-0.20;99.90;;;-1.97;100.00;100979.00;4970729;28;20022;-74
2022/01/07 02:02:46;;;;;;;43.20;11.88;;;-0.20;99.90;;;-1.98;100.00;100972.13;4985752;28;20033;-74
2022/01/07 02:05:13;;;;;;;49.03;12.00;;;-0.20;99.90;;;-2.00;100.00;100968.66;4984001;28;20027;-75
2022/01/07 02:07:41;;;;;;;51.88;12.98;;;-0.30;99.90;;;-2.01;100.00;100972.06;4980928;28;20101;-74
2022/01/07 02:10:12;;;;;;;55.10;12.93;;;-0.20;99.90;;;-2.00;100.00;100967.81;4966620;28;20394;-75
2022/01/07 02:12:39;;;;;;;56.95;13.50;;;-0.20;99.90;;;-2.00;100.00;100971.25;4983591;28;20041;-74
2022/01/07 02:15:08;;;;;;;59.70;15.02;;;-0.20;99.90;;;-2.02;100.00;100957.47;4964214;28;20054;-74
2022/01/07 02:17:34;;;;;;;60.67;14.27;;;-0.20;99.90;;;-2.03;100.00;100958.31;4965746;28;20037;-73
2022/01/07 02:20:00;;;;;;;48.78;14.52;;;-0.20;99.90;;;-1.98;100.00;100966.09;4981327;28;20030;-74
2022/01/07 02:22:27;;;;;;;65.15;15.45;;;-0.20;99.90;;;-1.96;100.00;100964.41;4980359;28;20101;-74
2022/01/07 02:24:54;;;;;;;51.85;14.73;;;-0.10;99.90;;;-1.94;100.00;100966.13;4976339;28;20402;-74
2022/01/07 02:27:20;;;;;;;55.40;14.25;;;-0.10;99.90;;;-1.92;100.00;100967.03;4981064;28;20080;-73
2022/01/07 02:29:49;;;;;;;56.75;14.48;;;-0.10;99.90;;;-1.91;100.00;100968.72;4981975;28;20026;-74
2022/01/07 02:32:17;;;;;;;66.13;15.05;;;-0.10;99.90;;;-1.90;100.00;100965.31;4979477;28;20050;-73
2022/01/07 02:34:48;;;;;;;48.70;14.73;;;-0.10;99.90;;;-1.87;100.00;100964.47;4983574;28;20034;-74
2022/01/07 02:37:15;;;;;;;56.45;14.00;;;-0.10;99.90;;;-1.87;100.00;100960.16;4980474;28;20692;-73
2022/01/07 02:39:42;;;;;;;65.13;15.75;;;-0.10;99.90;;;-1.83;100.00;100957.63;4982268;28;20109;-74
2022/01/07 02:42:08;;;;;;;67.53;14.57;;;-0.10;99.90;;;-1.82;100.00;100959.34;4980567;28;20125;-73
2022/01/07 02:44:34;;;;;;;48.70;14.93;;;-0.10;99.90;;;-1.80;100.00;100950.75;4976452;28;20038;-74
2022/01/07 02:47:00;;;;;;;49.72;15.07;;;0.00;99.90;;;-1.79;100.00;100961.94;5008667;28;20030;-74
2022/01/07 02:49:26;;;;;;;56.55;15.40;;;0.00;99.90;;;-1.78;100.00;100958.53;4982434;28;20037;-74
2022/01/07 02:51:52;;;;;;;58.55;15.10;;;0.00;99.90;;;-1.76;100.00;100961.97;4982021;28;20046;-74
2022/01/07 02:54:18;;;;;;;59.22;14.95;;;0.00;99.90;;;-1.76;100.00;100959.41;4980171;28;20058;-74
2022/01/07 02:56:44;;;;;;;68.20;15.98;;;0.00;99.90;;;-1.72;100.00;100950.81;4981044;28;20037;-74
2022/01/07 02:59:11;;;;;;;53.08;15.88;;;0.00;99.90;;;-1.73;100.00;100951.66;4966854;28;20026;-74
2022/01/07 03:01:39;;;;;;;75.18;15.65;;;0.00;99.90;;;-1.74;100.00;100947.38;4983940;28;20054;-74
2022/01/07 03:04:07;;;;;;;65.93;17.08;;;0.00;99.90;;;-1.75;100.00;100946.50;4979259;28;20045;-74
2022/01/07 03:06:34;;;;;;;65.53;16.13;;;0.00;99.90;;;-1.74;100.00;100947.38;4965528;28;20045;-75
2022/01/07 03:09:01;;;;;;;62.78;15.73;;;0.10;99.90;;;-1.74;100.00;100939.63;4980368;28;20042;-73
2022/01/07 03:11:27;;;;;;;54.05;15.38;;;0.10;99.90;;;-1.75;100.00;100930.13;4980319;28;20038;-74
2022/01/07 03:13:53;;;;;;;74.57;16.50;;;0.00;99.90;;;-1.75;100.00;100932.72;4979598;28;20438;-73
2022/01/07 03:16:19;;;;;;;57.45;16.23;;;0.00;99.90;;;-1.76;100.00;100928.41;4979917;28;20046;-74
2022/01/07 03:18:45;;;;;;;72.25;16.88;;;0.00;99.90;;;-1.77;100.00;100929.25;4963068;28;20026;-74
2022/01/07 03:21:11;;;;;;;66.03;17.10;;;0.00;99.90;;;-1.77;100.00;100930.13;4978043;28;20022;-74
2022/01/07 03:23:37;;;;;;;59.63;16.40;;;0.10;99.90;;;-1.73;100.00;100928.41;4966370;28;20022;-73
2022/01/07 03:26:06;;;;;;;60.05;15.70;;;0.00;99.90;;;-1.73;100.00;100928.41;4978390;28;20022;-74
2022/01/07 03:28:32;;;;;;;69.18;16.88;;;0.10;99.90;;;-1.74;100.00;100924.13;4970572;28;20027;-74
2022/01/07 03:30:59;;;;;;;63.40;15.70;;;0.10;99.90;;;-1.77;100.00;100924.09;4979607;28;20474;-74
2022/01/07 03:33:25;;;;;;;53.03;15.35;;;0.00;99.90;;;-1.74;100.00;100924.13;4971666;28;20093;-74
2022/01/07 03:35:52;;;;;;;65.20;15.38;;;0.00;99.90;;;-1.76;100.00;100918.94;4979746;28;20081;-74
2022/01/07 03:38:18;;;;;;;64.47;15.55;;;0.00;99.90;;;-1.75;100.00;100920.69;4980265;28;20078;-74
2022/01/07 03:40:44;;;;;;;77.10;15.55;;;0.00;99.90;;;-1.73;100.00;100918.09;4979488;28;20029;-74
2022/01/07 03:43:10;;;;;;;51.88;15.90;;;0.00;99.90;;;-1.76;100.00;100918.09;4980569;28;20049;-74
2022/01/07 03:45:36;;;;;;;60.65;16.27;;;0.00;99.90;;;-1.75;100.00;100925.84;4962775;28;20048;-74
2022/01/07 03:48:02;;;;;;;62.17;15.80;;;0.00;99.90;;;-1.77;100.00;100913.75;4980154;28;20045;-74
2022/01/07 03:50:29;;;;;;;61.05;15.73;;;0.00;99.90;;;-1.80;100.00;100930.09;4977669;28;20542;-74
2022/01/07 03:53:00;;;;;;;63.20;15.25;;;0.00;99.90;;;-1.79;100.00;100926.69;4980398;28;20045;-74
2022/01/07 03:55:29;;;;;;;72.03;16.45;;;0.10;99.90;;;-1.77;100.00;100908.59;4975421;28;20461;-74
2022/01/07 03:57:56;;;;;;;63.90;15.13;;;0.00;99.90;;;-1.78;100.00;100912.06;4978074;28;20028;-74
2022/01/07 04:00:33;;;;;;;56.83;15.60;;;0.00;99.90;;;-1.73;100.00;100902.59;4978117;28;20022;-75
2022/01/07 04:03:06;;;;;;;58.97;15.52;;;0.10;99.90;;;-1.69;100.00;100901.78;4962953;28;20040;-74
2022/01/07 04:05:32;;;;;;;62.75;15.45;;;0.10;99.90;;;-1.69;100.00;100900.03;4993742;28;20030;-74
2022/01/07 04:07:58;;;;;;;61.80;15.25;;;0.10;99.90;;;-1.68;100.00;100893.19;4980313;28;20052;-74
2022/01/07 04:10:24;;;;;;;66.47;16.23;;;0.10;99.90;;;-1.62;100.00;100905.25;4977707;28;20042;-74
2022/01/07 04:12:51;;;;;;;67.00;16.00;;;0.20;99.90;;;-1.56;100.00;100894.97;4978742;28;20515;-74
2022/01/07 04:15:17;;;;;;;65.05;16.63;;;0.20;99.90;;;-1.51;100.00;100896.72;4979002;28;20395;-74
2022/01/07 04:17:55;;;;;;;52.75;14.43;;;0.30;99.90;;;-1.45;100.00;100894.19;4981326;28;20035;-73
2022/01/07 04:20:28;;;;;;;59.20;15.30;;;0.30;99.90;;;-1.42;100.00;100892.47;4981222;28;20132;-74
2022/01/07 04:22:55;;;;;;;57.17;15.23;;;0.40;99.90;;;-1.39;100.00;100887.31;4993012;28;20066;-74
2022/01/07 04:25:23;;;;;;;43.40;15.23;;;0.40;99.90;;;-1.37;100.00;100880.44;4977830;28;20034;-74
2022/01/07 04:27:54;;;;;;;51.08;14.55;;;0.40;99.90;;;-1.32;100.00;100878.72;4977442;28;20168;-74
2022/01/07 04:30:22;;;;;;;51.58;14.90;;;0.50;99.90;;;-1.26;100.00;100871.00;4980894;28;20053;-73
2022/01/07 04:32:49;;;;;;;54.80;12.82;;;0.50;99.90;;;-1.25;100.00;100867.59;4976774;28;20058;-74
2022/01/07 04:35:17;;;;;;;52.55;13.27;;;0.50;99.90;;;-1.26;100.00;100858.94;4975345;28;20058;-74
2022/01/07 04:37:43;;;;;;;47.47;13.15;;;0.50;99.90;;;-1.24;100.00;100858.97;4984178;28;20027;-74
2022/01/07 04:40:12;;;;;;;51.20;12.88;;;0.50;99.90;;;-1.23;100.00;100858.13;5009267;23;20294;-77
2022/01/07 04:42:38;;;;;;;49.38;13.18;;;0.60;99.90;;;-1.20;100.00;100849.50;4962089;28;20036;-79
2022/01/07 04:45:07;;;;;;;59.75;13.32;;;0.60;99.90;;;-1.16;100.00;100843.50;4945803;28;20039;-78
2022/01/07 04:47:36;;;;;;;51.28;12.27;;;0.60;99.90;;;-1.12;100.00;100840.94;4961901;28;20037;-78
2022/01/07 04:50:15;;;;;;;58.97;13.57;;;0.60;99.90;;;-1.06;100.00;100828.03;4959900;28;20027;-78
2022/01/07 04:52:46;;;;;;;40.03;11.40;;;0.70;99.90;;;-1.04;100.00;100823.72;4980617;28;20113;-79
2022/01/07 04:55:29;;;;;;;59.70;12.68;;;0.70;99.90;;;-1.01;100.00;100814.25;4992060;28;20033;-78
2022/01/07 04:57:56;;;;;;;57.88;12.13;;;0.70;99.90;;;-1.04;100.00;100808.22;4958690;28;20113;-78
2022/01/07 05:00:23;;;;;;;56.97;11.93;;;0.70;99.90;;;-1.00;100.00;100810.78;4950508;28;20063;-79
2022/01/07 05:02:50;;;;;;;44.95;11.20;;;0.70;99.90;;;-0.99;100.00;100807.34;4948837;28;20019;-78
2022/01/07 05:05:18;;;;;;;44.75;11.10;;;0.70;99.90;;;-0.99;100.00;100809.91;5002359;28;20100;-79
2022/01/07 05:07:44;;;;;;;41.40;11.02;;;0.70;99.90;;;-1.03;100.00;100801.31;4988085;28;20558;-78
2022/01/07 05:10:13;;;;;;;48.50;11.55;;;0.70;99.90;;;-1.01;100.00;100796.16;4958521;28;20106;-78
2022/01/07 05:12:42;;;;;;;48.63;11.20;;;0.70;99.90;;;-1.04;100.00;100790.13;4935297;28;20133;-78
2022/01/07 05:15:09;;;;;;;49.20;10.88;;;0.70;99.90;;;-1.04;100.00;100790.13;4944264;28;20092;-78
2022/01/07 05:17:36;;;;;;;44.63;9.77;;;0.70;99.90;;;-1.05;100.00;100787.53;4923793;28;20461;-78
2022/01/07 05:20:03;;;;;;;45.88;10.52;;;0.70;99.90;;;-1.06;100.00;100785.78;4946325;28;20037;-78
2022/01/07 05:22:29;;;;;;;38.17;9.15;;;0.70;99.90;;;-1.04;100.00;100784.06;4962324;28;20032;-78
2022/01/07 05:24:55;;;;;;;48.92;10.30;;;0.70;99.90;;;-1.04;100.00;100779.78;4949266;28;20058;-78
2022/01/07 05:27:22;;;;;;;35.58;8.80;;;0.70;99.90;;;-1.04;100.00;100777.22;4933263;28;20030;-78
2022/01/07 05:29:50;;;;;;;34.55;9.60;;;0.70;99.90;;;-1.02;100.00;100778.91;4946577;28;20057;-79
2022/01/07 05:32:16;;;;;;;39.22;9.05;;;0.70;99.90;;;-1.06;100.00;100778.03;4956296;28;20087;-79
2022/01/07 05:34:42;;;;;;;35.42;10.05;;;0.70;99.90;;;-1.07;100.00;100777.19;4976741;28;20038;-79
2022/01/07 05:37:10;;;;;;;39.78;9.80;;;0.70;99.90;;;-1.09;100.00;100776.31;4948622;28;20104;-79
2022/01/07 05:39:37;;;;;;;46.65;9.23;;;0.70;99.90;;;-1.12;100.00;100775.47;4972563;28;20414;-79
2022/01/07 05:42:05;;;;;;;40.03;9.00;;;0.70;99.90;;;-1.09;100.00;100765.13;4956814;28;20045;-78
2022/01/07 05:44:31;;;;;;;28.25;9.30;;;0.70;99.90;;;-1.11;100.00;100762.53;4973264;28;20032;-78
2022/01/07 05:46:57;;;;;;;40.80;9.40;;;0.70;99.90;;;-1.09;100.00;100755.66;4953377;28;20449;-79
2022/01/07 05:49:24;;;;;;;52.40;9.02;;;0.70;99.90;;;-1.13;100.00;100759.06;4913876;28;20161;-78
2022/01/07 05:51:50;;;;;;;33.90;8.90;;;0.70;99.90;;;-1.08;100.00;100743.56;4927384;28;20042;-78
2022/01/07 05:54:16;;;;;;;45.42;8.38;;;0.70;99.90;;;-1.09;100.00;100754.78;4944106;28;20026;-79
2022/01/07 05:56:46;;;;;;;36.10;8.05;;;0.70;99.90;;;-1.06;100.00;100747.91;4930979;28;20433;-78
2022/01/07 05:59:12;;;;;;;39.63;8.70;;;0.70;99.90;;;-1.05;100.00;100741.88;4920821;28;20059;-78
2022/01/07 06:01:38;;;;;;;47.72;8.23;;;0.70;99.90;;;-1.08;100.00;100739.28;4989847;28;20022;-79
2022/01/07 06:04:04;;;;;;;35.22;7.78;;;0.60;99.90;;;-1.07;100.00;100733.25;4956323;28;20042;-79
2022/01/07 06:06:30;;;;;;;37.78;7.50;;;0.70;99.90;;;-1.07;100.00;100734.97;4959970;28;20068;-78
2022/01/07 06:08:56;;;;;;;36.95;7.35;;;0.70;99.90;;;-1.06;100.00;100742.75;4938012;28;20029;-79
2022/01/07 06:11:27;;;;;;;34.38;6.93;;;0.70;99.90;;;-1.05;100.00;100736.69;4942349;28;20778;-79
2022/01/07 06:13:53;;;;;;;31.60;7.78;;;0.70;99.90;;;-1.02;100.00;100741.00;4955644;28;20022;-77
2022/01/07 06:16:19;;;;;;;26.02;7.40;;;0.70;99.90;;;-1.00;100.00;100738.44;4959115;28;20021;-78
2022/01/07 06:19:18;;;;;;;31.85;8.02;;;0.70;99.90;;;-0.99;100.00;100740.13;4948999;28;20033;-78
2022/01/07 06:21:37;;;;;;;29.30;7.05;;;0.70;99.90;;;-1.00;100.00;100725.50;4938248;28;20053;-78
2022/01/07 06:24:03;;;;;;;27.73;6.60;;;0.70;99.90;;;-1.00;100.00;100728.09;4953071;28;20034;-79
2022/01/07 06:26:31;;;;;;;42.65;7.88;;;0.70;99.90;;;-0.96;100.00;100728.09;4971516;28;20026;-78
2022/01/07 06:28:57;;;;;;;34.95;7.03;;;0.80;99.90;;;-0.97;100.00;100721.22;4990200;28;20022;-79
2022/01/07 06:31:26;;;;;;;24.75;6.38;;;0.80;99.90;;;-0.88;100.00;100722.94;4949751;28;20026;-78
2022/01/07 06:33:52;;;;;;;45.88;7.40;;;0.80;99.90;;;-0.90;100.00;100733.28;4943085;28;20041;-78
2022/01/07 06:36:17;;;;;;;33.30;6.22;;;0.80;99.90;;;-0.87;100.00;100724.66;4953375;28;20037;-78
2022/01/07 06:38:43;;;;;;;37.13;6.53;;;0.80;99.90;;;-0.87;100.00;100724.66;4978405;28;20022;-78
2022/01/07 06:41:09;;;;;;;28.50;6.22;;;0.90;99.90;;;-0.86;100.00;100716.91;4970535;28;20022;-78
2022/01/07 06:43:35;;;;;;;23.98;5.80;;;0.90;99.90;;;-0.83;100.00;100718.63;4959844;28;20038;-78
2022/01/07 06:46:01;;;;;;;24.17;6.07;;;0.90;99.90;;;-0.84;100.00;100716.91;4938100;28;20025;-79
2022/01/07 06:48:35;;;;;;;33.65;5.88;;;0.90;99.90;;;-0.83;100.00;100718.63;4948399;28;20461;-79
2022/01/07 06:51:01;;;;;;;27.70;5.75;;;0.90;99.90;;;-0.81;100.00;100716.91;4952649;28;20101;-78
2022/01/07 06:53:29;;;;;;;21.15;5.32;;;0.90;99.90;;;-0.78;100.00;100714.28;4948041;28;20065;-79
2022/01/07 06:55:59;;;;;;;36.13;6.70;;;0.90;99.90;;;-0.84;100.00;100719.50;4956594;28;20475;-78
2022/01/07 06:58:25;;;;;;;23.77;5.50;;;0.90;99.90;;;-0.86;100.00;100716.91;4963237;28;20585;-80
2022/01/07 07:00:51;;;;;;;32.10;5.60;;;0.80;99.90;;;-0.92;100.00;100710.88;4968433;28;20116;-79
2022/01/07 07:03:17;;;;;;;32.55;5.72;;;0.80;99.90;;;-0.95;100.00;100708.25;4966233;28;20034;-78
2022/01/07 07:05:43;;;;;;;37.30;6.03;;;0.80;99.90;;;-0.97;100.00;100697.06;4955687;28;20036;-78
2022/01/07 07:08:09;;;;;;;28.70;6.15;;;0.70;99.90;;;-1.03;100.00;100697.94;4935175;28;20122;-80
2022/01/07 07:10:43;;;;;;;25.83;5.55;;;0.70;99.90;;;-1.05;100.00;100705.69;4903093;28;20109;-79
2022/01/07 07:13:09;;;;;;;22.90;5.13;;;0.70;99.90;;;-1.06;100.00;100703.97;4937836;28;20138;-78
2022/01/07 07:15:35;;;;;;;24.80;5.60;;;0.70;99.90;;;-1.03;100.00;100703.13;4976314;28;20037;-78
2022/01/07 07:18:00;;;;;;;28.92;5.75;;;0.70;99.90;;;-1.03;100.00;100700.53;4972481;28;20705;-78
2022/01/07 07:20:29;;;;;;;34.60;6.55;;;0.70;99.90;;;-1.02;100.00;100693.63;4952812;28;20044;-79
2022/01/07 07:22:55;;;;;;;26.20;5.53;;;0.70;99.90;;;-0.98;100.00;100703.09;4961353;28;20453;-78
2022/01/07 07:25:23;;;;;;;32.63;5.45;;;0.70;99.90;;;-0.96;100.00;100703.97;4990678;28;20025;-80
2022/01/07 07:27:50;;;;;;;28.60;5.07;;;0.80;99.90;;;-0.91;100.00;100702.25;4957849;28;20049;-78
2022/01/07 07:30:16;;;;;;;20.67;5.32;;;0.80;99.90;;;-0.87;100.00;100706.56;4947591;28;20036;-78
2022/01/07 07:32:47;;;;;;;23.67;5.00;;;0.80;99.90;;;-0.86;100.00;100697.94;4955431;28;20104;-79
2022/01/07 07:36:27;;;;;;;25.00;5.63;;;0.80;99.90;;;-0.84;100.00;100704.84;4912215;28;20030;-79
2022/01/07 07:37:58;;;;;;;27.60;5.38;;;0.90;99.90;;;-0.77;100.00;100710.88;4955884;28;20022;-78
2022/01/07 07:40:24;;;;;;;24.83;5.07;;;0.90;99.90;;;-0.72;100.00;100703.94;4976470;28;20096;-79
2022/01/07 07:42:57;;;;;;;28.38;5.45;;;0.90;99.90;;;-0.70;100.00;100702.22;4961824;28;20037;-78
2022/01/07 07:45:23;;;;;;;33.08;5.60;;;1.00;99.90;;;-0.64;100.00;100699.66;4919332;28;20035;-78
2022/01/07 07:47:49;;;;;;;32.28;5.30;;;1.00;99.90;;;-0.55;100.00;100695.31;4955123;28;20037;-79
2022/01/07 07:50:15;;;;;;;26.00;5.18;;;1.10;99.90;;;-0.53;100.00;100693.59;4940768;28;20096;-78
2022/01/07 07:52:41;;;;;;;31.90;5.70;;;1.10;99.90;;;-0.48;100.00;100697.03;4935543;28;20069;-78
2022/01/07 07:55:08;;;;;;;20.88;4.82;;;1.10;99.90;;;-0.50;100.00;100685.81;4912519;28;20080;-79
2022/01/07 07:57:37;;;;;;;31.67;6.05;;;1.20;99.90;;;-0.41;100.00;100685.81;4951475;28;20040;-78
2022/01/07 08:00:05;;;;;;;28.85;5.32;;;1.20;99.90;;;-0.38;100.00;100677.19;4964336;28;20052;-77
2022/01/07 08:02:31;;;;;;;29.42;5.47;;;1.30;99.90;;;-0.38;100.00;100651.31;4987976;28;20125;-77
2022/01/07 08:04:58;;;;;;;27.95;5.15;;;1.30;99.90;;;-0.31;100.00;100677.16;4996129;28;20072;-76
2022/01/07 08:07:31;;;;;;;23.10;5.82;;;1.40;99.90;;;-0.25;100.00;100677.13;4977967;28;20115;-79
2022/01/07 08:09:57;;;;;;;20.23;5.07;;;1.40;99.90;;;-0.21;100.00;100676.28;4937471;28;20034;-78
2022/01/07 08:12:49;;;;;;;26.95;5.18;;;1.50;99.90;;;-0.18;100.00;100680.56;4965692;28;20132;-78
2022/01/07 08:17:53;;;;;;;18.00;5.43;;;1.50;99.90;;;-0.12;100.00;100677.09;4964191;28;20037;-79
2022/01/07 08:20:19;;;;;;;19.70;5.50;;;1.60;99.90;;;-0.10;100.00;100677.97;4970289;28;20022;-79
2022/01/07 08:22:45;;;;;;;25.23;5.80;;;1.60;99.90;;;-0.07;100.00;100672.75;4949037;28;20901;-78
2022/01/07 08:25:11;;;;;;;27.30;5.70;;;1.60;99.90;;;-0.07;100.00;100677.94;4943603;28;20034;-78
2022/01/07 08:27:37;;;;;;;26.42;6.03;;;1.60;99.90;;;0.01;100.00;100664.97;4930914;28;20025;-77
2022/01/07 08:30:14;;;;;;;19.08;4.72;;;1.70;99.90;;;0.03;100.00;100674.47;4936162;28;20503;-79
2022/01/07 08:35:25;;;;;;;19.73;5.18;;;1.70;99.90;;;0.14;100.00;100682.19;4987007;28;20096;-78
2022/01/07 08:37:53;;;;;;;24.70;5.35;;;1.80;99.90;;;0.19;100.00;100678.72;4970510;28;20056;-78
2022/01/07 08:40:19;;;;;;;19.67;5.68;;;1.80;99.90;;;0.28;100.00;100685.56;4968272;28;20044;-79
2022/01/07 08:42:45;;;;;;;19.00;5.25;;;1.90;99.90;;;0.33;100.00;100690.72;4961547;28;20017;-78
2022/01/07 08:45:11;;;;;;;20.10;5.22;;;1.90;99.90;;;0.33;100.00;100682.97;4955924;28;20029;-78
2022/01/07 08:47:37;;;;;;;25.02;5.57;;;1.90;99.90;;;0.29;100.00;100676.91;4978194;28;20069;-78
2022/01/07 08:50:09;;;;;;;29.10;5.70;;;1.90;99.90;;;0.34;100.00;100671.72;4954099;28;20033;-78
2022/01/07 08:52:35;;;;;;;23.45;5.63;;;1.90;99.90;;;0.36;100.00;100680.34;4881658;28;20533;-79
2022/01/07 08:55:01;;;;;;;25.38;5.55;;;2.00;99.90;;;0.33;100.00;100677.78;4952124;28;20057;-78
2022/01/07 08:57:27;;;;;;;20.50;5.50;;;2.00;99.90;;;0.37;100.00;100671.72;4971361;28;20092;-77
2022/01/07 08:59:53;;;;;;;30.65;6.50;;;2.00;99.90;;;0.38;100.00;100670.84;4985177;28;20026;-78
2022/01/07 09:02:19;;;;;;;26.40;5.88;;;2.00;99.90;;;0.45;100.00;100667.31;4965213;28;20034;-78
2022/01/07 09:04:48;;;;;;;24.75;5.72;;;2.00;99.90;;;0.50;100.00;100669.91;4955397;28;20041;-79
2022/01/07 09:07:14;;;;;;;24.73;6.13;;;2.10;99.90;;;0.56;100.00;100657.78;4971536;28;20046;-79
2022/01/07 09:09:40;;;;;;;30.65;6.20;;;2.10;99.90;;;0.66;100.00;100668.06;4954221;28;20034;-78
2022/01/07 09:12:07;;;;;;;23.05;5.65;;;2.20;99.90;;;0.74;100.00;100663.69;4959235;28;20428;-78
2022/01/07 09:14:33;;;;;;;27.05;5.60;;;2.20;99.90;;;0.75;100.00;100662.81;4968359;28;20577;-79
2022/01/07 09:16:59;;;;;;;24.13;5.80;;;2.30;99.90;;;0.70;100.00;100651.63;4950638;28;20403;-79
2022/01/07 09:19:27;;;;;;;24.10;5.63;;;2.30;99.90;;;0.63;100.00;100649.94;4935379;28;20038;-78
2022/01/07 09:21:56;;;;;;;26.25;5.50;;;2.30;99.90;;;0.67;100.00;100656.81;4942403;28;20041;-78
2022/01/07 09:24:23;;;;;;;23.98;6.32;;;2.30;99.90;;;0.78;100.00;100662.81;4990725;28;20030;-78
2022/01/07 09:26:49;;;;;;;17.23;5.60;;;2.30;99.90;;;0.83;100.00;100658.44;4934200;28;20097;-79
2022/01/07 09:29:23;;;;;;;26.92;5.97;;;2.40;99.90;;;0.88;100.00;100656.66;4941075;28;20756;-79
2022/01/07 09:31:51;;;;;;;33.22;6.50;;;2.40;99.90;;;0.81;100.00;100653.25;4952334;28;20038;-80
2022/01/07 09:34:17;;;;;;;23.05;5.80;;;2.40;99.90;;;0.82;100.00;100657.59;4932924;28;20014;-78
2022/01/07 09:36:43;;;;;;;22.42;6.40;;;2.40;99.90;;;0.85;100.00;100648.06;4931643;28;20371;-79
2022/01/07 09:39:11;;;;;;;25.10;6.05;;;2.40;99.90;;;0.85;100.00;100654.09;4937543;28;20112;-79
2022/01/07 09:41:39;;;;;;;20.20;6.03;;;2.40;99.90;;;0.76;100.00;100655.03;4903370;28;20038;-79
2022/01/07 09:44:14;;;;;;;18.77;5.63;;;2.40;99.90;;;0.75;100.00;100661.06;4942214;28;20033;-76
2022/01/07 09:46:41;;;;;;;24.67;6.03;;;2.40;99.90;;;0.79;100.00;100667.09;4951023;28;20035;-77
2022/01/07 09:49:07;;;;;;;17.80;5.70;;;2.40;99.90;;;0.76;100.00;100665.41;4941975;28;20470;-77
2022/01/07 09:51:41;;;;;;;22.88;5.95;;;2.40;99.90;;;0.74;100.00;100655.94;4938598;28;20050;-77
2022/01/07 09:54:08;;;;;;;31.77;5.63;;;2.40;99.90;;;0.70;100.00;100651.63;4971208;28;20056;-78
2022/01/07 09:56:35;;;;;;;25.73;6.25;;;2.40;99.90;;;0.71;100.00;100648.16;4931655;28;20081;-77
2022/01/07 09:59:05;;;;;;;22.83;6.03;;;2.40;99.90;;;0.71;100.00;100637.78;4934887;28;21201;-76
2022/01/07 10:02:01;;;;;;;20.75;5.90;;;2.40;99.90;;;0.72;100.00;100644.72;4938890;28;20067;-77
2022/01/07 10:04:39;;;;;;;25.92;6.15;;;2.40;99.90;;;0.71;100.00;100637.78;4923933;28;20045;-77
2022/01/07 10:07:21;;;;;;;20.95;6.15;;;2.40;99.90;;;0.63;100.00;100639.56;4932830;28;20037;-78
2022/01/07 10:10:08;;;;;;;21.38;5.85;;;2.40;99.90;;;0.63;100.00;100624.91;4964760;28;20034;-76